sensor_id;sensor_type;location;lat;lon;timestamp;pressure;altitude;pressure_sealevel;temperature;humidity
26083;BME280;13848;49.018;12.078;2023-05-14T00:00:40;97705.47;;;11.07;75.61
26083;BME280;13848;49.018;12.078;2023-05-14T00:03:06;97702.47;;;11.15;75.05
26083;BME280;13848;49.018;12.078;2023-05-14T00:05:32;97697.91;;;11.15;75.11
26083;BME280;13848;49.018;12.078;2023-05-14T00:07:58;97701.66;;;11.14;75.05
26083;BME280;13848;49.018;12.078;2023-05-14T00:10:25;97704.56;;;11.13;75.49
26083;BME280;13848;49.018;12.078;2023-05-14T00:12:51;97695.06;;;11.10;75.67
26083;BME280;13848;49.018;12.078;2023-05-14T00:15:17;97690.63;;;11.16;75.57
26083;BME280;13848;49.018;12.078;2023-05-14T00:17:44;97691.69;;;11.15;75.82
26083;BME280;13848;49.018;12.078;2023-05-14T00:20:11;97687.53;;;11.12;75.88
26083;BME280;13848;49.018;12.078;2023-05-14T00:22:37;97689.00;;;11.15;76.21
26083;BME280;13848;49.018;12.078;2023-05-14T00:25:03;97680.28;;;11.13;75.68
26083;BME280;13848;49.018;12.078;2023-05-14T00:27:29;97678.78;;;11.17;75.51
26083;BME280;13848;49.018;12.078;2023-05-14T00:29:55;97681.47;;;11.17;74.91
26083;BME280;13848;49.018;12.078;2023-05-14T00:32:22;97676.56;;;11.14;75.24
26083;BME280;13848;49.018;12.078;2023-05-14T00:34:49;97680.97;;;11.08;75.60
26083;BME280;13848;49.018;12.078;2023-05-14T00:37:15;97682.84;;;11.08;75.14
26083;BME280;13848;49.018;12.078;2023-05-14T00:39:41;97683.44;;;11.10;75.78
26083;BME280;13848;49.018;12.078;2023-05-14T00:42:07;97674.75;;;11.08;75.21
26083;BME280;13848;49.018;12.078;2023-05-14T00:44:34;97678.47;;;11.07;75.02
26083;BME280;13848;49.018;12.078;2023-05-14T00:47:00;97684.66;;;11.14;75.74
26083;BME280;13848;49.018;12.078;2023-05-14T00:49:27;97680.88;;;11.15;75.34
26083;BME280;13848;49.018;12.078;2023-05-14T00:51:54;97677.97;;;11.16;75.40
26083;BME280;13848;49.018;12.078;2023-05-14T00:54:24;97676.41;;;11.09;75.96
26083;BME280;13848;49.018;12.078;2023-05-14T00:56:50;97676.25;;;11.04;75.40
26083;BME280;13848;49.018;12.078;2023-05-14T00:59:16;97674.28;;;11.11;76.09
26083;BME280;13848;49.018;12.078;2023-05-14T01:01:42;97673.97;;;11.01;75.79
26083;BME280;13848;49.018;12.078;2023-05-14T01:04:09;97669.06;;;10.98;76.09
26083;BME280;13848;49.018;12.078;2023-05-14T01:06:43;97678.03;;;11.10;75.99
26083;BME280;13848;49.018;12.078;2023-05-14T01:09:16;97665.13;;;11.12;75.91
26083;BME280;13848;49.018;12.078;2023-05-14T01:11:50;97669.28;;;11.14;75.61
26083;BME280;13848;49.018;12.078;2023-05-14T01:14:20;97667.16;;;11.16;75.55
26083;BME280;13848;49.018;12.078;2023-05-14T01:16:51;97674.28;;;11.11;75.62
26083;BME280;13848;49.018;12.078;2023-05-14T01:19:24;97670.44;;;11.18;75.38
26083;BME280;13848;49.018;12.078;2023-05-14T01:21:53;97663.22;;;11.19;75.63
26083;BME280;13848;49.018;12.078;2023-05-14T01:24:19;97662.44;;;11.12;75.82
26083;BME280;13848;49.018;12.078;2023-05-14T01:26:45;97653.81;;;11.22;75.42
26083;BME280;13848;49.018;12.078;2023-05-14T01:29:17;97658.16;;;11.23;75.11
26083;BME280;13848;49.018;12.078;2023-05-14T01:31:46;97652.53;;;11.24;75.53
26083;BME280;13848;49.018;12.078;2023-05-14T01:34:14;97648.03;;;11.18;75.63
26083;BME280;13848;49.018;12.078;2023-05-14T01:36:41;97648.81;;;11.25;75.32
26083;BME280;13848;49.018;12.078;2023-05-14T01:39:10;97645.44;;;11.11;75.70
26083;BME280;13848;49.018;12.078;2023-05-14T01:41:38;97656.53;;;11.22;75.59
26083;BME280;13848;49.018;12.078;2023-05-14T01:44:05;97654.50;;;11.17;75.48
26083;BME280;13848;49.018;12.078;2023-05-14T01:46:31;97649.00;;;11.24;75.53
26083;BME280;13848;49.018;12.078;2023-05-14T01:48:57;97649.91;;;11.17;75.78
26083;BME280;13848;49.018;12.078;2023-05-14T01:51:23;97659.22;;;11.22;76.12
26083;BME280;13848;49.018;12.078;2023-05-14T01:53:49;97650.75;;;11.18;75.89
26083;BME280;13848;49.018;12.078;2023-05-14T01:56:18;97642.22;;;11.21;75.52
26083;BME280;13848;49.018;12.078;2023-05-14T01:58:44;97656.28;;;11.23;75.62
26083;BME280;13848;49.018;12.078;2023-05-14T02:01:10;97650.44;;;11.26;75.96
26083;BME280;13848;49.018;12.078;2023-05-14T02:03:36;97642.50;;;11.31;75.78
26083;BME280;13848;49.018;12.078;2023-05-14T02:06:02;97649.31;;;11.34;75.67
26083;BME280;13848;49.018;12.078;2023-05-14T02:08:28;97647.94;;;11.25;76.12
26083;BME280;13848;49.018;12.078;2023-05-14T02:10:53;97639.19;;;11.29;76.06
26083;BME280;13848;49.018;12.078;2023-05-14T02:13:21;97639.31;;;11.34;75.37
26083;BME280;13848;49.018;12.078;2023-05-14T02:15:48;97637.69;;;11.33;75.93
26083;BME280;13848;49.018;12.078;2023-05-14T02:18:14;97637.44;;;11.35;75.53
26083;BME280;13848;49.018;12.078;2023-05-14T02:20:40;97636.41;;;11.36;76.01
26083;BME280;13848;49.018;12.078;2023-05-14T02:23:06;97637.09;;;11.31;76.27
26083;BME280;13848;49.018;12.078;2023-05-14T02:25:32;97636.47;;;11.29;75.88
26083;BME280;13848;49.018;12.078;2023-05-14T02:27:58;97632.28;;;11.33;76.25
26083;BME280;13848;49.018;12.078;2023-05-14T02:30:25;97628.75;;;11.33;76.21
26083;BME280;13848;49.018;12.078;2023-05-14T02:32:51;97627.56;;;11.29;75.66
26083;BME280;13848;49.018;12.078;2023-05-14T02:35:17;97635.22;;;11.32;75.97
26083;BME280;13848;49.018;12.078;2023-05-14T02:37:43;97627.22;;;11.25;76.13
26083;BME280;13848;49.018;12.078;2023-05-14T02:40:09;97625.53;;;11.24;75.98
26083;BME280;13848;49.018;12.078;2023-05-14T02:42:35;97625.34;;;11.07;76.49
26083;BME280;13848;49.018;12.078;2023-05-14T02:45:01;97623.50;;;11.08;76.57
26083;BME280;13848;49.018;12.078;2023-05-14T02:47:29;97618.28;;;11.06;75.97
26083;BME280;13848;49.018;12.078;2023-05-14T02:49:55;97601.84;;;10.96;76.10
26083;BME280;13848;49.018;12.078;2023-05-14T02:52:21;97612.41;;;10.98;75.91
26083;BME280;13848;49.018;12.078;2023-05-14T02:54:47;97617.13;;;11.02;75.83
26083;BME280;13848;49.018;12.078;2023-05-14T02:57:12;97610.13;;;10.95;76.34
26083;BME280;13848;49.018;12.078;2023-05-14T02:59:38;97608.19;;;10.83;76.74
26083;BME280;13848;49.018;12.078;2023-05-14T03:02:04;97607.00;;;10.79;76.57
26083;BME280;13848;49.018;12.078;2023-05-14T03:04:32;97604.75;;;10.76;76.86
26083;BME280;13848;49.018;12.078;2023-05-14T03:06:58;97601.47;;;10.74;77.17
26083;BME280;13848;49.018;12.078;2023-05-14T03:09:24;97602.06;;;10.76;76.82
26083;BME280;13848;49.018;12.078;2023-05-14T03:11:49;97608.81;;;10.67;77.36
26083;BME280;13848;49.018;12.078;2023-05-14T03:14:15;97608.81;;;10.67;77.43
26083;BME280;13848;49.018;12.078;2023-05-14T03:16:41;97596.34;;;10.66;76.90
26083;BME280;13848;49.018;12.078;2023-05-14T03:19:07;97604.25;;;10.68;76.79
26083;BME280;13848;49.018;12.078;2023-05-14T03:21:35;97604.28;;;10.61;77.22
26083;BME280;13848;49.018;12.078;2023-05-14T03:24:01;97603.94;;;10.57;77.32
26083;BME280;13848;49.018;12.078;2023-05-14T03:26:26;97596.50;;;10.53;77.06
26083;BME280;13848;49.018;12.078;2023-05-14T03:28:52;97599.03;;;10.48;77.76
26083;BME280;13848;49.018;12.078;2023-05-14T03:31:18;97595.75;;;10.46;77.34
26083;BME280;13848;49.018;12.078;2023-05-14T03:33:44;97595.59;;;10.41;77.78
26083;BME280;13848;49.018;12.078;2023-05-14T03:36:10;97595.00;;;10.38;77.94
26083;BME280;13848;49.018;12.078;2023-05-14T03:38:38;97601.66;;;10.36;78.21
26083;BME280;13848;49.018;12.078;2023-05-14T03:41:03;97596.66;;;10.39;78.04
26083;BME280;13848;49.018;12.078;2023-05-14T03:43:29;97603.97;;;10.32;78.60
26083;BME280;13848;49.018;12.078;2023-05-14T03:45:55;97603.97;;;10.32;78.30
26083;BME280;13848;49.018;12.078;2023-05-14T03:48:21;97605.00;;;10.31;77.96
26083;BME280;13848;49.018;12.078;2023-05-14T03:50:47;97609.00;;;10.22;78.36
26083;BME280;13848;49.018;12.078;2023-05-14T03:53:13;97608.59;;;10.25;78.54
26083;BME280;13848;49.018;12.078;2023-05-14T03:55:40;97605.91;;;10.25;78.13
26083;BME280;13848;49.018;12.078;2023-05-14T03:58:06;97609.00;;;10.22;78.33
26083;BME280;13848;49.018;12.078;2023-05-14T04:00:32;97596.59;;;10.21;78.36
26083;BME280;13848;49.018;12.078;2023-05-14T04:02:58;97596.16;;;10.24;78.64
26083;BME280;13848;49.018;12.078;2023-05-14T04:05:24;97597.03;;;10.18;79.22
26083;BME280;13848;49.018;12.078;2023-05-14T04:07:50;97590.81;;;10.18;78.92
26083;BME280;13848;49.018;12.078;2023-05-14T04:10:16;97590.59;;;10.19;79.26
26083;BME280;13848;49.018;12.078;2023-05-14T04:12:43;97588.19;;;10.11;79.34
26083;BME280;13848;49.018;12.078;2023-05-14T04:15:10;97586.47;;;10.17;79.17
26083;BME280;13848;49.018;12.078;2023-05-14T04:17:36;97597.47;;;10.15;78.91
26083;BME280;13848;49.018;12.078;2023-05-14T04:20:02;97594.31;;;10.18;79.67
26083;BME280;13848;49.018;12.078;2023-05-14T04:22:28;97588.94;;;10.18;79.33
26083;BME280;13848;49.018;12.078;2023-05-14T04:24:54;97582.06;;;10.22;79.31
26083;BME280;13848;49.018;12.078;2023-05-14T04:27:20;97588.91;;;10.25;79.51
26083;BME280;13848;49.018;12.078;2023-05-14T04:29:48;97593.41;;;10.31;79.54
26083;BME280;13848;49.018;12.078;2023-05-14T04:32:14;97589.63;;;10.38;79.09
26083;BME280;13848;49.018;12.078;2023-05-14T04:34:40;97592.47;;;10.44;79.09
26083;BME280;13848;49.018;12.078;2023-05-14T04:37:06;97588.66;;;10.51;79.02
26083;BME280;13848;49.018;12.078;2023-05-14T04:39:32;97590.88;;;10.54;78.66
26083;BME280;13848;49.018;12.078;2023-05-14T04:41:58;97593.97;;;10.58;78.43
26083;BME280;13848;49.018;12.078;2023-05-14T04:44:24;97590.44;;;10.57;79.24
26083;BME280;13848;49.018;12.078;2023-05-14T04:46:51;97585.56;;;10.66;78.29
26083;BME280;13848;49.018;12.078;2023-05-14T04:49:17;97589.53;;;10.45;78.97
26083;BME280;13848;49.018;12.078;2023-05-14T04:51:43;97573.59;;;10.62;78.75
26083;BME280;13848;49.018;12.078;2023-05-14T04:54:09;97587.59;;;10.71;79.06
26083;BME280;13848;49.018;12.078;2023-05-14T04:56:34;97581.69;;;10.80;78.34
26083;BME280;13848;49.018;12.078;2023-05-14T04:59:00;97582.44;;;10.87;78.48
26083;BME280;13848;49.018;12.078;2023-05-14T05:01:26;97585.88;;;10.95;77.73
26083;BME280;13848;49.018;12.078;2023-05-14T05:03:54;97587.06;;;10.99;77.42
26083;BME280;13848;49.018;12.078;2023-05-14T05:06:19;97588.84;;;11.05;78.19
26083;BME280;13848;49.018;12.078;2023-05-14T05:08:45;97587.66;;;11.01;77.14
26083;BME280;13848;49.018;12.078;2023-05-14T05:11:11;97596.41;;;11.14;77.14
26083;BME280;13848;49.018;12.078;2023-05-14T05:13:37;97590.41;;;11.12;77.84
26083;BME280;13848;49.018;12.078;2023-05-14T05:16:04;97592.00;;;11.20;77.53
26083;BME280;13848;49.018;12.078;2023-05-14T05:18:30;97598.84;;;11.34;77.15
26083;BME280;13848;49.018;12.078;2023-05-14T05:20:57;97594.50;;;11.33;77.60
26083;BME280;13848;49.018;12.078;2023-05-14T05:23:23;97582.66;;;11.34;77.12
26083;BME280;13848;49.018;12.078;2023-05-14T05:25:49;97589.03;;;11.52;77.28
26083;BME280;13848;49.018;12.078;2023-05-14T05:28:15;97584.50;;;11.64;76.45
26083;BME280;13848;49.018;12.078;2023-05-14T05:30:41;97586.28;;;11.70;76.98
26083;BME280;13848;49.018;12.078;2023-05-14T05:33:07;97576.28;;;11.70;76.22
26083;BME280;13848;49.018;12.078;2023-05-14T05:35:33;97592.16;;;11.67;76.03
26083;BME280;13848;49.018;12.078;2023-05-14T05:38:00;97579.66;;;11.84;76.37
26083;BME280;13848;49.018;12.078;2023-05-14T05:40:26;97582.25;;;11.91;75.77
26083;BME280;13848;49.018;12.078;2023-05-14T05:42:52;97578.88;;;11.65;74.76
26083;BME280;13848;49.018;12.078;2023-05-14T05:45:18;97577.41;;;11.81;75.79
26083;BME280;13848;49.018;12.078;2023-05-14T05:47:44;97586.34;;;11.93;75.91
26083;BME280;13848;49.018;12.078;2023-05-14T05:50:10;97580.97;;;12.17;75.22
26083;BME280;13848;49.018;12.078;2023-05-14T05:52:36;97579.09;;;12.29;74.86
26083;BME280;13848;49.018;12.078;2023-05-14T05:55:04;97583.09;;;12.15;73.79
26083;BME280;13848;49.018;12.078;2023-05-14T05:57:30;97574.88;;;12.33;75.40
26083;BME280;13848;49.018;12.078;2023-05-14T05:59:56;97577.53;;;12.68;74.92
26083;BME280;13848;49.018;12.078;2023-05-14T06:02:22;97578.59;;;12.67;73.81
26083;BME280;13848;49.018;12.078;2023-05-14T06:04:48;97578.63;;;12.56;73.96
26083;BME280;13848;49.018;12.078;2023-05-14T06:07:14;97582.91;;;12.80;74.38
26083;BME280;13848;49.018;12.078;2023-05-14T06:09:40;97584.00;;;12.67;72.78
26083;BME280;13848;49.018;12.078;2023-05-14T06:12:08;97580.81;;;12.82;72.25
26083;BME280;13848;49.018;12.078;2023-05-14T06:14:34;97585.28;;;12.88;73.69
26083;BME280;13848;49.018;12.078;2023-05-14T06:17:00;97578.06;;;13.05;73.06
26083;BME280;13848;49.018;12.078;2023-05-14T06:19:25;97585.88;;;13.30;72.92
26083;BME280;13848;49.018;12.078;2023-05-14T06:21:51;97579.50;;;13.37;70.88
26083;BME280;13848;49.018;12.078;2023-05-14T06:24:17;97583.00;;;13.37;71.50
26083;BME280;13848;49.018;12.078;2023-05-14T06:26:43;97574.81;;;13.77;72.34
26083;BME280;13848;49.018;12.078;2023-05-14T06:29:10;97581.31;;;13.93;70.46
26083;BME280;13848;49.018;12.078;2023-05-14T06:31:36;97575.16;;;13.98;69.04
26083;BME280;13848;49.018;12.078;2023-05-14T06:34:02;97572.84;;;14.06;68.71
26083;BME280;13848;49.018;12.078;2023-05-14T06:36:28;97573.50;;;13.63;69.86
26083;BME280;13848;49.018;12.078;2023-05-14T06:38:54;97583.84;;;13.83;70.19
26083;BME280;13848;49.018;12.078;2023-05-14T06:41:20;97579.72;;;13.97;68.99
26083;BME280;13848;49.018;12.078;2023-05-14T06:43:46;97581.06;;;13.95;68.07
26083;BME280;13848;49.018;12.078;2023-05-14T06:46:13;97583.22;;;14.09;69.48
26083;BME280;13848;49.018;12.078;2023-05-14T06:48:39;97576.81;;;14.16;69.48
26083;BME280;13848;49.018;12.078;2023-05-14T06:51:05;97581.06;;;14.28;69.58
26083;BME280;13848;49.018;12.078;2023-05-14T06:53:31;97576.81;;;14.16;67.99
26083;BME280;13848;49.018;12.078;2023-05-14T06:55:57;97583.25;;;14.15;67.76
26083;BME280;13848;49.018;12.078;2023-05-14T06:58:23;97575.63;;;14.11;69.01
26083;BME280;13848;49.018;12.078;2023-05-14T07:00:49;97573.91;;;14.05;67.91
26083;BME280;13848;49.018;12.078;2023-05-14T07:03:16;97578.59;;;14.27;68.59
26083;BME280;13848;49.018;12.078;2023-05-14T07:05:42;97579.16;;;14.29;67.30
26083;BME280;13848;49.018;12.078;2023-05-14T07:08:08;97579.00;;;14.19;65.99
26083;BME280;13848;49.018;12.078;2023-05-14T07:10:34;97578.19;;;14.01;65.68
26083;BME280;13848;49.018;12.078;2023-05-14T07:13:00;97576.97;;;13.92;65.37
26083;BME280;13848;49.018;12.078;2023-05-14T07:15:26;97578.44;;;13.83;65.55
26083;BME280;13848;49.018;12.078;2023-05-14T07:17:52;97574.81;;;13.94;65.73
26083;BME280;13848;49.018;12.078;2023-05-14T07:20:19;97577.28;;;14.13;65.26
26083;BME280;13848;49.018;12.078;2023-05-14T07:22:45;97573.81;;;13.83;64.03
26083;BME280;13848;49.018;12.078;2023-05-14T07:25:11;97576.91;;;13.58;62.19
26083;BME280;13848;49.018;12.078;2023-05-14T07:27:37;97577.59;;;13.66;63.45
26083;BME280;13848;49.018;12.078;2023-05-14T07:30:04;97573.50;;;13.80;62.37
26083;BME280;13848;49.018;12.078;2023-05-14T07:32:30;97563.00;;;14.00;63.24
26083;BME280;13848;49.018;12.078;2023-05-14T07:34:56;97565.03;;;14.27;62.78
26083;BME280;13848;49.018;12.078;2023-05-14T07:37:23;97563.16;;;14.27;62.05
26083;BME280;13848;49.018;12.078;2023-05-14T07:39:49;97558.19;;;14.41;61.86
26083;BME280;13848;49.018;12.078;2023-05-14T07:42:15;97566.09;;;14.26;61.22
26083;BME280;13848;49.018;12.078;2023-05-14T07:44:41;97561.66;;;14.20;61.68
26083;BME280;13848;49.018;12.078;2023-05-14T07:47:07;97568.41;;;14.00;60.96
26083;BME280;13848;49.018;12.078;2023-05-14T07:49:33;97566.59;;;13.89;61.33
26083;BME280;13848;49.018;12.078;2023-05-14T07:51:59;97564.16;;;14.04;60.13
26083;BME280;13848;49.018;12.078;2023-05-14T07:54:26;97564.06;;;13.99;61.87
26083;BME280;13848;49.018;12.078;2023-05-14T07:56:52;97558.53;;;13.61;60.55
26083;BME280;13848;49.018;12.078;2023-05-14T07:59:18;97561.75;;;13.91;61.13
26083;BME280;13848;49.018;12.078;2023-05-14T08:01:44;97552.22;;;14.22;60.49
26083;BME280;13848;49.018;12.078;2023-05-14T08:04:10;97556.03;;;14.43;61.31
26083;BME280;13848;49.018;12.078;2023-05-14T08:06:36;97544.50;;;14.70;60.79
26083;BME280;13848;49.018;12.078;2023-05-14T08:09:02;97548.28;;;14.69;60.06
26083;BME280;13848;49.018;12.078;2023-05-14T08:11:29;97536.03;;;14.88;60.26
26083;BME280;13848;49.018;12.078;2023-05-14T08:13:56;97545.59;;;14.90;59.21
26083;BME280;13848;49.018;12.078;2023-05-14T08:16:21;97530.69;;;14.93;57.09
26083;BME280;13848;49.018;12.078;2023-05-14T08:18:48;97524.31;;;15.04;59.31
26083;BME280;13848;49.018;12.078;2023-05-14T08:21:14;97533.44;;;15.47;59.24
26083;BME280;13848;49.018;12.078;2023-05-14T08:23:39;97526.66;;;15.23;56.88
26083;BME280;13848;49.018;12.078;2023-05-14T08:26:05;97522.38;;;15.27;57.57
26083;BME280;13848;49.018;12.078;2023-05-14T08:28:33;97522.50;;;15.37;57.08
26083;BME280;13848;49.018;12.078;2023-05-14T08:30:59;97523.44;;;15.53;57.31
26083;BME280;13848;49.018;12.078;2023-05-14T08:33:24;97524.34;;;15.31;55.71
26083;BME280;13848;49.018;12.078;2023-05-14T08:35:51;97528.59;;;15.00;57.83
26083;BME280;13848;49.018;12.078;2023-05-14T08:38:17;97518.09;;;15.31;57.76
26083;BME280;13848;49.018;12.078;2023-05-14T08:40:46;97511.88;;;15.94;58.75
26083;BME280;13848;49.018;12.078;2023-05-14T08:43:14;97502.09;;;16.36;56.06
26083;BME280;13848;49.018;12.078;2023-05-14T08:45:45;97505.28;;;16.28;55.71
26083;BME280;13848;49.018;12.078;2023-05-14T08:48:15;97492.47;;;16.18;55.86
26083;BME280;13848;49.018;12.078;2023-05-14T08:50:43;97499.56;;;15.87;55.07
26083;BME280;13848;49.018;12.078;2023-05-14T08:53:09;97500.00;;;16.11;56.00
26083;BME280;13848;49.018;12.078;2023-05-14T08:55:36;97495.16;;;16.65;54.39
26083;BME280;13848;49.018;12.078;2023-05-14T08:58:02;97497.28;;;16.53;52.96
26083;BME280;13848;49.018;12.078;2023-05-14T09:00:28;97494.34;;;16.65;53.98
26083;BME280;13848;49.018;12.078;2023-05-14T09:02:56;97490.75;;;17.17;54.60
26083;BME280;13848;49.018;12.078;2023-05-14T09:05:23;97485.50;;;16.90;52.79
26083;BME280;13848;49.018;12.078;2023-05-14T09:07:50;97481.00;;;16.68;52.33
26083;BME280;13848;49.018;12.078;2023-05-14T09:10:16;97490.34;;;16.78;53.80
26083;BME280;13848;49.018;12.078;2023-05-14T09:12:42;97480.59;;;16.97;52.59
26083;BME280;13848;49.018;12.078;2023-05-14T09:15:08;97483.91;;;16.99;51.94
26083;BME280;13848;49.018;12.078;2023-05-14T09:17:34;97478.53;;;17.50;52.38
26083;BME280;13848;49.018;12.078;2023-05-14T09:20:02;97470.34;;;18.26;53.71
26083;BME280;13848;49.018;12.078;2023-05-14T09:22:28;97475.03;;;17.80;50.84
26083;BME280;13848;49.018;12.078;2023-05-14T09:25:02;97479.41;;;17.81;51.99
26083;BME280;13848;49.018;12.078;2023-05-14T09:27:29;97479.63;;;17.49;49.74
26083;BME280;13848;49.018;12.078;2023-05-14T09:29:55;97469.50;;;17.24;50.55
26083;BME280;13848;49.018;12.078;2023-05-14T09:32:21;97481.00;;;17.62;50.74
26083;BME280;13848;49.018;12.078;2023-05-14T09:34:47;97472.75;;;17.16;50.08
26083;BME280;13848;49.018;12.078;2023-05-14T09:37:14;97474.97;;;17.34;50.98
26083;BME280;13848;49.018;12.078;2023-05-14T09:39:40;97474.22;;;16.66;51.57
26083;BME280;13848;49.018;12.078;2023-05-14T09:42:06;97466.94;;;16.77;51.27
26083;BME280;13848;49.018;12.078;2023-05-14T09:44:32;97463.72;;;16.95;52.15
26083;BME280;13848;49.018;12.078;2023-05-14T09:46:58;97457.78;;;17.23;51.19
26083;BME280;13848;49.018;12.078;2023-05-14T09:49:24;97464.34;;;17.48;52.46
26083;BME280;13848;49.018;12.078;2023-05-14T09:51:50;97459.72;;;17.48;51.66
26083;BME280;13848;49.018;12.078;2023-05-14T09:54:17;97446.06;;;18.20;52.30
26083;BME280;13848;49.018;12.078;2023-05-14T09:56:43;97454.22;;;18.35;49.98
26083;BME280;13848;49.018;12.078;2023-05-14T09:59:10;97448.03;;;17.89;50.86
26083;BME280;13848;49.018;12.078;2023-05-14T10:01:36;97439.25;;;18.22;51.78
26083;BME280;13848;49.018;12.078;2023-05-14T10:04:05;97445.88;;;18.81;50.97
26083;BME280;13848;49.018;12.078;2023-05-14T10:06:34;97437.38;;;18.82;48.61
26083;BME280;13848;49.018;12.078;2023-05-14T10:09:03;97426.34;;;19.08;49.93
26083;BME280;13848;49.018;12.078;2023-05-14T10:11:32;97426.94;;;19.39;49.11
26083;BME280;13848;49.018;12.078;2023-05-14T10:14:02;97431.22;;;19.11;49.26
26083;BME280;13848;49.018;12.078;2023-05-14T10:16:32;97434.78;;;19.51;50.42
26083;BME280;13848;49.018;12.078;2023-05-14T10:19:01;97430.31;;;19.26;49.99
26083;BME280;13848;49.018;12.078;2023-05-14T10:21:33;97422.16;;;18.61;49.19
26083;BME280;13848;49.018;12.078;2023-05-14T10:23:59;97427.06;;;18.74;50.23
26083;BME280;13848;49.018;12.078;2023-05-14T10:26:26;97427.88;;;18.75;50.41
26083;BME280;13848;49.018;12.078;2023-05-14T10:28:53;97432.03;;;18.57;50.16
26083;BME280;13848;49.018;12.078;2023-05-14T10:31:22;97424.41;;;18.49;50.67
26083;BME280;13848;49.018;12.078;2023-05-14T10:33:49;97424.19;;;18.30;51.09
26083;BME280;13848;49.018;12.078;2023-05-14T10:36:16;97419.06;;;18.13;51.52
26083;BME280;13848;49.018;12.078;2023-05-14T10:38:42;97428.13;;;17.93;51.78
26083;BME280;13848;49.018;12.078;2023-05-14T10:41:11;97425.66;;;17.92;51.79
26083;BME280;13848;49.018;12.078;2023-05-14T10:43:38;97412.56;;;17.94;51.40
26083;BME280;13848;49.018;12.078;2023-05-14T10:46:07;97423.47;;;18.04;52.64
26083;BME280;13848;49.018;12.078;2023-05-14T10:48:33;97419.31;;;18.22;52.16
26083;BME280;13848;49.018;12.078;2023-05-14T10:51:01;97419.34;;;18.17;51.71
26083;BME280;13848;49.018;12.078;2023-05-14T10:53:35;97417.88;;;18.45;51.51
26083;BME280;13848;49.018;12.078;2023-05-14T10:56:06;97416.31;;;18.93;51.78
26083;BME280;13848;49.018;12.078;2023-05-14T10:58:35;97407.81;;;18.95;50.75
26083;BME280;13848;49.018;12.078;2023-05-14T11:01:01;97415.03;;;18.75;51.24
26083;BME280;13848;49.018;12.078;2023-05-14T11:03:29;97406.19;;;18.34;50.80
26083;BME280;13848;49.018;12.078;2023-05-14T11:05:56;97401.53;;;18.34;51.82
26083;BME280;13848;49.018;12.078;2023-05-14T11:08:22;97400.97;;;18.38;52.06
26083;BME280;13848;49.018;12.078;2023-05-14T11:10:51;97404.25;;;18.34;51.69
26083;BME280;13848;49.018;12.078;2023-05-14T11:13:17;97402.38;;;18.25;51.75
26083;BME280;13848;49.018;12.078;2023-05-14T11:15:44;97402.97;;;18.06;52.36
26083;BME280;13848;49.018;12.078;2023-05-14T11:18:11;97395.88;;;18.11;51.66
26083;BME280;13848;49.018;12.078;2023-05-14T11:20:38;97392.56;;;18.19;51.77
26083;BME280;13848;49.018;12.078;2023-05-14T11:23:05;97390.66;;;18.24;51.59
26083;BME280;13848;49.018;12.078;2023-05-14T11:25:31;97383.84;;;18.22;51.67
26083;BME280;13848;49.018;12.078;2023-05-14T11:27:57;97382.72;;;18.33;51.53
26083;BME280;13848;49.018;12.078;2023-05-14T11:30:23;97385.09;;;18.50;51.48
26083;BME280;13848;49.018;12.078;2023-05-14T11:32:49;97378.00;;;18.44;51.25
26083;BME280;13848;49.018;12.078;2023-05-14T11:35:15;97375.81;;;18.46;51.66
26083;BME280;13848;49.018;12.078;2023-05-14T11:37:47;97379.59;;;18.55;51.02
26083;BME280;13848;49.018;12.078;2023-05-14T11:40:14;97373.00;;;18.71;50.33
26083;BME280;13848;49.018;12.078;2023-05-14T11:42:40;97370.56;;;18.59;49.23
26083;BME280;13848;49.018;12.078;2023-05-14T11:45:10;97365.84;;;18.80;49.89
26083;BME280;13848;49.018;12.078;2023-05-14T11:47:36;97361.81;;;19.07;49.82
26083;BME280;13848;49.018;12.078;2023-05-14T11:50:02;97369.00;;;19.37;49.25
26083;BME280;13848;49.018;12.078;2023-05-14T11:52:28;97359.91;;;19.07;47.84
26083;BME280;13848;49.018;12.078;2023-05-14T11:54:55;97354.69;;;19.11;49.99
26083;BME280;13848;49.018;12.078;2023-05-14T11:57:21;97351.78;;;19.02;49.98
26083;BME280;13848;49.018;12.078;2023-05-14T11:59:48;97353.63;;;19.07;48.80
26083;BME280;13848;49.018;12.078;2023-05-14T12:02:19;97350.28;;;19.20;50.35
26083;BME280;13848;49.018;12.078;2023-05-14T12:04:49;97345.25;;;19.32;49.34
26083;BME280;13848;49.018;12.078;2023-05-14T12:07:15;97342.81;;;19.31;49.86
26083;BME280;13848;49.018;12.078;2023-05-14T12:09:44;97345.06;;;19.53;49.97
26083;BME280;13848;49.018;12.078;2023-05-14T12:12:12;97339.78;;;18.98;49.83
26083;BME280;13848;49.018;12.078;2023-05-14T12:14:39;97330.63;;;19.13;50.10
26083;BME280;13848;49.018;12.078;2023-05-14T12:17:10;97336.03;;;19.23;50.09
26083;BME280;13848;49.018;12.078;2023-05-14T12:19:38;97335.13;;;18.99;49.23
26083;BME280;13848;49.018;12.078;2023-05-14T12:22:04;97332.69;;;18.97;49.14
26083;BME280;13848;49.018;12.078;2023-05-14T12:24:30;97330.53;;;18.89;48.58
26083;BME280;13848;49.018;12.078;2023-05-14T12:27:00;97320.41;;;18.45;49.47
26083;BME280;13848;49.018;12.078;2023-05-14T12:29:28;97316.97;;;18.79;50.15
26083;BME280;13848;49.018;12.078;2023-05-14T12:31:56;97320.16;;;18.91;49.79
26083;BME280;13848;49.018;12.078;2023-05-14T12:34:22;97312.63;;;19.41;50.31
26083;BME280;13848;49.018;12.078;2023-05-14T12:36:48;97318.09;;;19.70;49.32
26083;BME280;13848;49.018;12.078;2023-05-14T12:39:14;97303.56;;;19.75;49.12
26083;BME280;13848;49.018;12.078;2023-05-14T12:41:40;97306.69;;;20.11;49.10
26083;BME280;13848;49.018;12.078;2023-05-14T12:44:06;97296.94;;;20.05;47.61
26083;BME280;13848;49.018;12.078;2023-05-14T12:46:33;97297.75;;;20.05;49.18